Time;durP1;ratioP1;P1;durP2;ratioP2;P2;SDS_P1;SDS_P2;PMS_P1;PMS_P2;Temp;Humidity;BMP_temperature;BMP_pressure;BME280_temperature;BME280_humidity;BME280_pressure;Samples;Min_cycle;Max_cycle;Signal;HPM_P1;HPM_P2
2022/08/12 00:44:42;;;;;;;6.53;5.27;;;18.60;76.00;;;;;;5056122;28;20935;-68
2022/08/12 00:47:08;;;;;;;7.47;5.63;;;18.60;76.10;;;;;;5032851;28;20303;-68
2022/08/12 00:49:35;;;;;;;8.20;5.97;;;18.50;76.30;;;;;;5038327;28;20663;-68
2022/08/12 00:52:05;;;;;;;8.97;6.07;;;18.50;76.60;;;;;;5059862;28;20284;-68
2022/08/12 00:54:38;;;;;;;6.37;5.40;;;18.50;77.00;;;;;;5019356;28;20725;-68
2022/08/12 00:57:16;;;;;;;7.20;5.23;;;18.50;77.10;;;;;;5070119;28;20291;-68
2022/08/12 00:59:45;;;;;;;6.40;5.33;;;18.50;77.00;;;;;;5060954;28;20395;-68
2022/08/12 01:02:22;;;;;;;7.50;5.73;;;18.50;77.20;;;;;;5027169;28;20790;-68
2022/08/12 01:13:17;;;;;;;8.17;5.80;;;18.40;77.40;;;;;;5023337;28;20299;-68
2022/08/12 01:15:49;;;;;;;7.80;6.13;;;18.40;77.40;;;;;;5043494;28;20288;-68
2022/08/12 01:18:16;;;;;;;7.93;6.30;;;18.40;77.60;;;;;;5043817;28;20326;-68
2022/08/12 01:21:08;;;;;;;12.17;6.50;;;18.30;77.70;;;;;;5052726;28;20394;-68
2022/08/12 01:24:03;;;;;;;8.10;6.47;;;18.30;78.20;;;;;;5025189;28;20766;-68
2022/08/12 01:26:31;;;;;;;9.77;7.00;;;18.20;78.10;;;;;;5033107;28;20280;-67
2022/08/12 01:28:58;;;;;;;8.97;6.63;;;18.20;77.90;;;;;;5042965;28;20493;-68
2022/08/12 01:31:25;;;;;;;9.33;7.43;;;18.20;77.90;;;;;;5024687;28;20322;-68
2022/08/12 01:34:02;;;;;;;10.07;7.80;;;18.10;78.10;;;;;;5052468;28;20282;-68
2022/08/12 01:36:52;;;;;;;11.03;8.00;;;18.00;78.20;;;;;;5036141;28;20287;-68
2022/08/12 01:39:20;;;;;;;11.67;8.20;;;18.00;78.30;;;;;;5014947;28;20385;-68
2022/08/12 01:42:07;;;;;;;10.23;8.00;;;17.90;78.60;;;;;;5038866;28;20768;-68
2022/08/12 01:44:35;;;;;;;10.10;8.37;;;17.90;78.90;;;;;;5030767;28;20386;-68
2022/08/12 01:47:21;;;;;;;10.87;7.70;;;17.90;78.90;;;;;;5033042;28;20276;-68
2022/08/12 01:49:47;;;;;;;;;;;17.90;79.30;;;;;;5060778;28;20298;-68
2022/08/12 01:52:40;;;;;;;9.63;7.73;;;17.80;80.00;;;;;;5047428;28;19925;-68
2022/08/12 01:55:08;;;;;;;11.87;8.03;;;17.80;78.90;;;;;;5019285;28;20288;-68
2022/08/12 01:58:19;;;;;;;13.33;8.80;;;17.80;79.70;;;;;;5033079;28;20295;-68
2022/08/12 02:00:57;;;;;;;11.70;8.80;;;17.80;80.20;;;;;;5033696;28;20290;-68
2022/08/12 02:13:32;;;;;;;12.67;8.30;;;17.70;80.30;;;;;;5048732;28;20288;-68
2022/08/12 02:16:07;;;;;;;9.20;8.00;;;17.70;80.30;;;;;;5026041;28;20751;-68
2022/08/12 02:18:39;;;;;;;10.73;7.60;;;17.70;80.40;;;;;;5030695;28;20365;-68
2022/08/12 02:21:13;;;;;;;12.53;8.13;;;17.70;80.60;;;;;;5028335;28;20444;-68
2022/08/12 02:23:40;;;;;;;9.43;8.13;;;17.70;81.20;;;;;;5074618;28;20267;-68
2022/08/12 02:26:08;;;;;;;11.53;7.93;;;17.60;80.80;;;;;;5056826;28;20045;-68
2022/08/12 02:28:36;;;;;;;10.87;8.83;;;17.60;80.90;;;;;;5070558;28;20311;-68
2022/08/12 02:31:05;;;;;;;11.57;8.03;;;17.60;81.20;;;;;;5018103;28;20371;-68
2022/08/12 02:33:32;;;;;;;11.27;8.37;;;17.60;81.40;;;;;;5033395;28;20693;-68
2022/08/12 02:36:01;;;;;;;10.70;8.23;;;17.60;81.60;;;;;;5057385;28;20562;-68
2022/08/12 02:38:29;;;;;;;10.10;8.27;;;17.60;81.80;;;;;;5040735;28;20818;-68
2022/08/12 02:40:57;;;;;;;12.37;8.23;;;17.60;81.50;;;;;;5062556;28;20381;-68
2022/08/12 02:43:36;;;;;;;11.93;8.70;;;17.60;81.50;;;;;;5062169;28;20272;-68
2022/08/12 02:46:05;;;;;;;12.60;7.83;;;17.50;81.80;;;;;;5033086;28;20288;-68
2022/08/12 02:48:47;;;;;;;9.63;8.30;;;17.50;81.70;;;;;;5036484;28;20367;-68
2022/08/12 02:51:22;;;;;;;10.87;8.30;;;17.50;81.90;;;;;;5040478;28;20287;-68
2022/08/12 02:53:50;;;;;;;12.48;7.70;;;17.50;82.00;;;;;;5041291;28;20299;-68
2022/08/12 02:56:17;;;;;;;11.33;8.23;;;17.40;81.80;;;;;;5045423;28;20076;-67
2022/08/12 02:58:45;;;;;;;10.30;8.13;;;17.40;82.20;;;;;;5026971;28;20311;-68
2022/08/12 03:01:12;;;;;;;11.83;9.07;;;17.40;82.20;;;;;;5063440;28;20307;-68
2022/08/12 03:03:39;;;;;;;10.13;7.80;;;17.40;82.20;;;;;;5033087;28;20272;-68
2022/08/12 03:06:16;;;;;;;10.63;9.03;;;17.40;82.20;;;;;;5019761;28;20807;-68
2022/08/12 03:08:45;;;;;;;11.57;8.60;;;17.40;82.40;;;;;;5041382;28;20830;-68
2022/08/12 03:11:20;;;;;;;12.70;9.60;;;17.40;82.40;;;;;;5038162;28;20283;-68
2022/08/12 03:13:56;;;;;;;15.20;9.85;;;17.40;82.80;;;;;;5048559;28;20279;-68
2022/08/12 03:16:23;;;;;;;10.97;8.67;;;17.30;82.80;;;;;;5040616;28;20055;-68
2022/08/12 03:18:50;;;;;;;15.40;9.10;;;17.30;83.10;;;;;;5062659;28;20295;-68
2022/08/12 03:21:20;;;;;;;12.40;9.37;;;17.30;82.90;;;;;;5063204;28;20291;-68
2022/08/12 03:23:47;;;;;;;12.47;8.77;;;17.30;83.00;;;;;;5042715;28;20282;-68
2022/08/12 03:26:13;;;;;;;11.33;8.40;;;17.30;83.00;;;;;;5046684;28;20395;-68
2022/08/12 03:28:49;;;;;;;10.77;9.03;;;17.30;83.30;;;;;;5045874;28;20685;-68
2022/08/12 03:31:17;;;;;;;10.00;8.47;;;17.30;83.30;;;;;;5037949;28;20288;-68
2022/08/12 03:33:46;;;;;;;13.37;9.03;;;17.30;83.40;;;;;;5039395;28;20833;-67
2022/08/12 03:36:17;;;;;;;13.03;8.93;;;17.30;83.60;;;;;;5072501;28;20386;-68
2022/08/12 03:38:51;;;;;;;11.13;8.77;;;17.30;83.60;;;;;;5043212;28;20311;-68
2022/08/12 03:41:35;;;;;;;13.85;9.00;;;17.30;83.70;;;;;;5028084;28;20280;-68
2022/08/12 04:01:00;;;;;;;11.52;7.78;;;17.40;84.10;;;;;;5045166;28;21033;-68
2022/08/12 04:06:10;;;;;;;9.82;7.28;;;17.40;84.10;;;;;;5044912;28;20103;-68
2022/08/12 04:08:37;;;;;;;9.93;7.30;;;17.40;84.20;;;;;;5060642;28;20397;-68
2022/08/12 04:14:18;;;;;;;10.00;7.80;;;17.40;84.20;;;;;;5007394;28;20296;-68
2022/08/12 04:16:45;;;;;;;12.80;6.80;;;17.40;84.20;;;;;;5008120;28;20331;-68
2022/08/12 04:19:12;;;;;;;10.17;6.63;;;17.50;84.10;;;;;;5016158;28;20315;-68
2022/08/12 04:21:38;;;;;;;11.77;6.60;;;17.40;84.10;;;;;;5061139;28;20784;-68
2022/08/12 04:24:04;;;;;;;7.13;6.20;;;17.40;84.10;;;;;;5059903;28;20390;-68
2022/08/12 04:26:31;;;;;;;10.23;6.87;;;17.50;84.20;;;;;;5061573;28;20051;-68
2022/08/12 04:28:58;;;;;;;10.67;6.60;;;17.50;84.10;;;;;;5042579;28;21076;-68
2022/08/12 04:31:34;;;;;;;9.07;6.53;;;17.50;84.10;;;;;;5041724;28;20631;-68
2022/08/12 04:34:01;;;;;;;9.80;6.53;;;17.50;84.40;;;;;;5038929;28;20578;-68
2022/08/12 04:36:28;;;;;;;8.73;6.17;;;17.50;84.30;;;;;;5045605;28;20291;-68
2022/08/12 04:38:55;;;;;;;8.17;6.17;;;17.50;84.00;;;;;;5027798;28;20299;-68
2022/08/12 04:41:21;;;;;;;9.17;5.87;;;17.50;84.10;;;;;;5044603;28;20333;-68
2022/08/12 04:43:47;;;;;;;7.23;5.57;;;17.60;84.00;;;;;;5027602;28;20328;-68
2022/08/12 04:46:14;;;;;;;7.90;5.33;;;17.60;83.80;;;;;;5043509;28;20033;-68
2022/08/12 04:48:40;;;;;;;8.77;5.47;;;17.70;83.60;;;;;;5038142;28;20284;-68
2022/08/12 04:51:06;;;;;;;7.87;5.70;;;17.70;83.30;;;;;;5042021;28;20340;-68
2022/08/12 04:53:33;;;;;;;9.07;5.67;;;17.80;83.30;;;;;;5022167;28;20280;-68
2022/08/12 04:56:01;;;;;;;9.10;6.00;;;17.80;83.20;;;;;;5042534;28;20290;-68
2022/08/12 04:58:27;;;;;;;8.30;6.00;;;17.80;83.10;;;;;;5042881;28;20304;-68
2022/08/12 05:00:53;;;;;;;9.03;6.20;;;17.80;82.90;;;;;;5024837;28;20362;-68
2022/08/12 05:03:19;;;;;;;8.90;5.70;;;17.90;82.80;;;;;;5039446;28;20432;-68
2022/08/12 05:05:45;;;;;;;8.93;6.37;;;17.90;82.50;;;;;;5027269;28;20284;-68
2022/08/12 05:08:16;;;;;;;8.97;5.80;;;17.90;82.40;;;;;;5022583;28;20064;-68
2022/08/12 05:10:44;;;;;;;10.53;5.80;;;18.00;82.40;;;;;;5046417;28;20083;-68
2022/08/12 05:13:14;;;;;;;9.07;6.07;;;18.00;82.20;;;;;;5061327;28;20829;-68
2022/08/12 05:15:41;;;;;;;8.13;5.60;;;18.00;82.10;;;;;;5052739;28;20295;-68
2022/08/12 05:18:07;;;;;;;10.03;5.83;;;18.00;82.10;;;;;;5006741;28;20370;-68
2022/08/12 05:20:33;;;;;;;11.43;5.50;;;18.00;82.10;;;;;;5061333;28;20398;-68
2022/08/12 05:23:07;;;;;;;9.97;6.07;;;18.10;81.90;;;;;;5051997;28;20057;-68
2022/08/12 05:25:32;;;;;;;8.83;5.53;;;18.10;82.00;;;;;;4999576;28;20310;-68
2022/08/12 05:27:59;;;;;;;9.27;6.03;;;18.10;81.80;;;;;;5041236;28;20272;-68
2022/08/12 05:30:32;;;;;;;9.90;5.10;;;18.20;81.90;;;;;;5059994;28;20044;-68
2022/08/12 05:32:58;;;;;;;10.57;6.10;;;18.30;81.50;;;;;;5018219;28;20695;-68
2022/08/12 05:35:24;;;;;;;9.10;5.53;;;18.30;81.40;;;;;;5044468;28;20279;-68
2022/08/12 05:38:54;;;;;;;6.97;5.30;;;18.30;81.40;;;;;;5014046;28;20643;-68
2022/08/12 05:40:36;;;;;;;5.83;4.87;;;18.40;81.30;;;;;;5072505;28;20750;-68
2022/08/12 05:43:01;;;;;;;7.87;5.20;;;18.50;81.10;;;;;;5027956;28;20291;-68
2022/08/12 05:45:27;;;;;;;9.10;5.57;;;18.50;80.80;;;;;;5046434;28;20112;-68
2022/08/12 05:47:53;;;;;;;8.03;5.77;;;18.60;80.70;;;;;;5066762;28;20143;-68
2022/08/12 05:50:19;;;;;;;7.17;5.60;;;18.70;80.10;;;;;;5040404;28;20213;-68
2022/08/12 05:52:44;;;;;;;6.83;5.10;;;18.80;79.90;;;;;;5055958;28;20128;-68
2022/08/12 05:55:10;;;;;;;7.20;5.10;;;18.80;79.40;;;;;;5026712;28;20041;-68
2022/08/12 05:57:36;;;;;;;6.50;4.83;;;18.80;79.30;;;;;;5043934;28;20477;-68
2022/08/12 06:00:04;;;;;;;9.63;5.20;;;18.90;79.20;;;;;;5042594;28;20053;-68
2022/08/12 06:02:30;;;;;;;8.20;5.40;;;19.00;78.90;;;;;;5063769;28;20280;-68
2022/08/12 06:04:59;;;;;;;8.03;4.80;;;19.00;78.80;;;;;;5063488;28;20660;-68
2022/08/12 06:07:24;;;;;;;6.83;5.00;;;19.10;78.90;;;;;;5044588;28;20535;-68
2022/08/12 06:09:50;;;;;;;7.97;5.00;;;19.20;78.90;;;;;;5041214;28;20291;-68
2022/08/12 06:12:22;;;;;;;6.30;4.70;;;19.30;78.30;;;;;;5058087;28;20048;-68
2022/08/12 06:14:48;;;;;;;6.43;4.37;;;19.30;78.00;;;;;;5055424;28;20087;-68
2022/08/12 06:17:14;;;;;;;8.57;4.70;;;19.40;77.30;;;;;;5036242;28;20292;-68
2022/08/12 06:19:40;;;;;;;9.97;4.83;;;19.50;76.70;;;;;;5008441;28;20307;-68
2022/08/12 06:22:06;;;;;;;5.67;4.40;;;19.60;76.40;;;;;;5001624;28;20075;-68
2022/08/12 06:24:32;;;;;;;7.33;4.67;;;19.70;76.00;;;;;;5048087;28;20288;-68
2022/08/12 06:26:58;;;;;;;9.10;4.90;;;19.70;75.30;;;;;;5066724;28;20556;-68
2022/08/12 06:29:24;;;;;;;7.90;4.40;;;19.80;75.50;;;;;;4987397;28;20052;-68
2022/08/12 06:31:51;;;;;;;7.80;4.50;;;19.90;74.70;;;;;;4954388;28;20645;-68
2022/08/12 06:34:17;;;;;;;6.60;4.80;;;20.00;75.30;;;;;;5001030;28;20385;-68
2022/08/12 06:36:45;;;;;;;8.93;5.07;;;20.10;75.30;;;;;;4977149;28;20306;-68
2022/08/12 06:39:12;;;;;;;7.53;4.70;;;20.30;75.40;;;;;;4978386;28;20305;-68
2022/08/12 06:44:24;;;;;;;5.82;4.38;;;20.50;74.80;;;;;;4982061;28;20556;-68
2022/08/12 06:46:51;;;;;;;5.70;4.43;;;20.80;74.70;;;;;;4980828;28;20042;-68
2022/08/12 06:49:16;;;;;;;5.97;4.70;;;21.10;73.40;;;;;;4968636;28;20132;-68
2022/08/12 06:51:42;;;;;;;5.63;4.43;;;21.40;72.50;;;;;;4982040;28;20133;-68
2022/08/12 06:54:10;;;;;;;8.37;4.40;;;21.80;71.00;;;;;;4981386;28;20065;-68
2022/08/12 06:56:36;;;;;;;6.23;4.13;;;22.20;69.50;;;;;;4979553;28;20498;-68
2022/08/12 06:59:02;;;;;;;6.43;4.40;;;22.50;68.80;;;;;;4980558;28;20466;-68
2022/08/12 07:01:30;;;;;;;7.47;4.43;;;22.60;67.80;;;;;;4949679;28;20069;-68
2022/08/12 07:03:57;;;;;;;6.23;3.90;;;22.50;67.40;;;;;;4981099;28;20039;-68
2022/08/12 07:06:24;;;;;;;4.57;3.53;;;22.20;68.10;;;;;;4931635;28;20484;-68
2022/08/12 07:08:49;;;;;;;6.13;3.77;;;22.10;68.10;;;;;;4953045;28;20046;-68
2022/08/12 07:11:15;;;;;;;7.33;4.30;;;21.90;68.10;;;;;;4986691;28;20775;-68
2022/08/12 07:13:44;;;;;;;7.33;4.00;;;21.90;68.90;;;;;;4990057;28;20129;-68
2022/08/12 07:16:16;;;;;;;6.73;4.00;;;21.90;68.90;;;;;;4987406;28;20344;-68
2022/08/12 07:18:43;;;;;;;6.53;3.87;;;21.90;68.80;;;;;;4980664;28;20057;-68
2022/08/12 07:21:11;;;;;;;6.23;3.83;;;22.00;68.20;;;;;;4977827;28;20026;-68
2022/08/12 07:23:38;;;;;;;6.53;3.80;;;22.00;68.00;;;;;;4973327;28;20141;-68
2022/08/12 07:26:07;;;;;;;5.73;3.20;;;22.10;68.30;;;;;;4973832;28;20423;-68
2022/08/12 07:28:35;;;;;;;6.43;3.77;;;22.10;68.30;;;;;;4967023;28;20491;-68
2022/08/12 07:31:06;;;;;;;6.73;3.60;;;22.20;68.20;;;;;;4978580;28;20521;-68
2022/08/12 07:33:32;;;;;;;4.40;3.00;;;22.30;67.70;;;;;;5005694;28;20088;-68
2022/08/12 07:36:01;;;;;;;5.57;2.83;;;22.40;66.50;;;;;;4981200;28;20526;-68
2022/08/12 07:38:42;;;;;;;5.77;3.23;;;22.50;66.50;;;;;;4969303;28;20038;-68
2022/08/12 07:41:22;;;;;;;5.40;3.10;;;22.60;66.40;;;;;;4978030;28;20089;-68
2022/08/12 07:43:52;;;;;;;7.87;3.20;;;22.70;66.00;;;;;;4965437;28;20047;-68
2022/08/12 07:46:21;;;;;;;4.07;2.83;;;22.70;65.60;;;;;;4982381;28;20529;-68
2022/08/12 07:48:50;;;;;;;5.70;3.07;;;22.80;66.00;;;;;;4972001;28;20046;-68
2022/08/12 07:51:17;;;;;;;7.40;3.50;;;22.90;65.40;;;;;;4977898;28;20046;-68
2022/08/12 07:53:43;;;;;;;6.50;2.87;;;23.00;65.00;;;;;;4983030;28;20406;-68
2022/08/12 07:56:10;;;;;;;5.23;2.40;;;23.10;64.90;;;;;;4994988;28;20034;-68
2022/08/12 07:58:40;;;;;;;5.90;2.83;;;23.20;64.60;;;;;;4983927;28;20267;-68
2022/08/12 08:01:09;;;;;;;6.70;2.80;;;23.40;64.60;;;;;;4976265;28;20096;-68
2022/08/12 08:03:36;;;;;;;4.37;2.67;;;23.50;64.40;;;;;;4980212;28;20038;-68
2022/08/12 08:06:15;;;;;;;7.27;2.70;;;23.60;63.40;;;;;;4955715;28;20112;-68
2022/08/12 08:08:40;;;;;;;6.13;2.43;;;23.70;62.50;;;;;;5005665;28;20041;-68
2022/08/12 08:13:50;;;;;;;3.53;2.30;;;23.90;62.50;;;;;;4992170;28;20047;-68
2022/08/12 08:16:16;;;;;;;4.57;2.30;;;24.00;62.50;;;;;;4975312;28;20541;-68
2022/08/12 08:18:42;;;;;;;6.23;2.70;;;24.10;62.00;;;;;;4959784;28;20051;-68
2022/08/12 08:21:09;;;;;;;3.57;2.77;;;24.30;60.80;;;;;;4967549;28;20105;-68
2022/08/12 08:26:21;;;;;;;4.05;2.40;;;24.40;60.80;;;;;;4981851;28;20444;-68
2022/08/12 08:28:47;;;;;;;4.43;2.43;;;24.60;60.60;;;;;;4995928;28;20054;-68
2022/08/12 08:31:13;;;;;;;4.33;2.50;;;24.70;60.60;;;;;;4962364;28;20362;-68
2022/08/12 08:33:40;;;;;;;3.20;2.07;;;24.80;60.30;;;;;;4946014;28;20578;-68
2022/08/12 08:36:08;;;;;;;7.10;2.57;;;25.00;60.10;;;;;;4966113;28;20085;-68
2022/08/12 08:38:34;;;;;;;7.07;2.80;;;25.10;60.10;;;;;;4949159;28;20165;-68
2022/08/12 08:43:44;;;;;;;5.45;2.70;;;25.30;59.80;;;;;;4971809;28;20042;-68
2022/08/12 08:46:10;;;;;;;5.63;2.77;;;25.40;59.20;;;;;;4979997;28;20045;-68
2022/08/12 08:48:36;;;;;;;5.20;2.63;;;25.50;58.00;;;;;;4963982;28;20042;-68
2022/08/12 08:51:04;;;;;;;4.83;2.40;;;25.60;57.50;;;;;;4965111;28;20043;-68
2022/08/12 08:53:30;;;;;;;3.67;2.20;;;25.70;57.10;;;;;;4969904;28;20566;-68
2022/08/12 08:55:55;;;;;;;3.33;2.47;;;25.80;57.80;;;;;;4950940;28;20180;-68
2022/08/12 08:58:21;;;;;;;5.60;2.37;;;25.90;57.30;;;;;;4980428;28;20239;-68
2022/08/12 09:00:50;;;;;;;4.27;2.30;;;26.10;56.50;;;;;;4951898;28;20047;-68
2022/08/12 09:03:17;;;;;;;4.30;2.50;;;26.20;56.40;;;;;;4964501;28;20046;-68
2022/08/12 09:05:43;;;;;;;3.70;1.90;;;26.30;56.00;;;;;;4974634;28;20100;-68
2022/08/12 09:08:09;;;;;;;5.07;2.07;;;26.50;55.00;;;;;;4999226;28;20042;-68
2022/08/12 09:10:36;;;;;;;4.53;2.20;;;26.60;55.10;;;;;;4976828;28;20038;-68
2022/08/12 09:15:46;;;;;;;2.47;2.05;;;26.80;54.30;;;;;;4982329;28;20038;-68
2022/08/12 09:18:12;;;;;;;3.37;1.80;;;26.90;55.00;;;;;;4968905;28;20392;-68
2022/08/12 09:20:39;;;;;;;3.67;2.10;;;27.00;55.50;;;;;;4964615;28;20462;-68
2022/08/12 09:23:10;;;;;;;5.47;2.10;;;27.20;55.30;;;;;;4981853;28;20038;-68
2022/08/12 09:25:38;;;;;;;4.20;2.20;;;27.30;54.30;;;;;;4981746;28;20030;-68
2022/08/12 09:28:06;;;;;;;4.50;2.40;;;27.50;54.20;;;;;;4981710;28;20125;-68
2022/08/12 09:30:32;;;;;;;4.17;2.17;;;27.60;53.50;;;;;;4973709;28;20049;-68
2022/08/12 09:33:01;;;;;;;4.03;1.47;;;27.70;52.90;;;;;;4975219;28;20042;-68
2022/08/12 09:35:39;;;;;;;4.67;2.20;;;27.80;52.90;;;;;;4949229;28;20046;-68
2022/08/12 09:38:05;;;;;;;3.20;1.63;;;27.90;52.60;;;;;;4973352;28;20058;-68
2022/08/12 09:40:31;;;;;;;2.70;1.90;;;28.00;52.10;;;;;;4987122;28;20043;-68
2022/08/12 09:45:48;;;;;;;5.05;2.05;;;28.10;51.70;;;;;;4956427;28;20045;-68
2022/08/12 09:48:15;;;;;;;3.20;1.73;;;28.30;51.40;;;;;;4952031;28;20149;-68
2022/08/12 09:50:42;;;;;;;2.93;1.90;;;28.40;51.40;;;;;;4959036;28;20046;-68
2022/08/12 09:53:27;;;;;;;4.67;1.90;;;28.50;50.50;;;;;;4977312;28;20038;-68
2022/08/12 09:55:56;;;;;;;2.70;1.90;;;28.60;50.70;;;;;;4981485;28;20034;-68
2022/08/12 09:58:27;;;;;;;5.30;1.90;;;28.70;49.90;;;;;;4977939;28;20054;-68
2022/08/12 10:01:00;;;;;;;3.13;1.73;;;28.90;48.70;;;;;;4973964;28;20043;-68
2022/08/12 10:03:28;;;;;;;3.40;2.20;;;29.00;49.00;;;;;;4977446;28;20035;-69
2022/08/12 10:05:55;;;;;;;3.57;1.90;;;29.10;49.20;;;;;;4981125;28;20034;-68
2022/08/12 10:08:26;;;;;;;2.73;1.70;;;29.20;48.70;;;;;;4960329;28;20042;-68
2022/08/12 10:13:40;;;;;;;4.70;1.77;;;29.40;47.70;;;;;;4977677;28;20574;-68
2022/08/12 10:16:18;;;;;;;3.47;1.80;;;29.40;48.20;;;;;;4979452;28;20052;-68
2022/08/12 10:18:49;;;;;;;6.00;2.00;;;29.50;47.80;;;;;;4981850;28;20476;-68
2022/08/12 10:21:19;;;;;;;3.03;1.83;;;29.60;47.00;;;;;;4972811;28;20042;-68
2022/08/12 10:23:48;;;;;;;2.40;1.80;;;29.60;46.90;;;;;;4978733;28;20456;-68
2022/08/12 10:31:49;;;;;;;3.60;1.90;;;29.90;46.20;;;;;;5001655;28;20073;-68
2022/08/12 10:34:25;;;;;;;6.90;2.00;;;30.00;46.00;;;;;;4952578;28;20051;-68
2022/08/12 10:36:54;;;;;;;2.77;1.97;;;30.10;44.40;;;;;;4976551;28;20414;-68
2022/08/12 10:39:21;;;;;;;3.30;1.93;;;30.10;44.40;;;;;;4970181;28;20482;-68
2022/08/12 10:44:32;;;;;;;3.08;1.60;;;30.10;44.40;;;;;;4972075;28;20161;-68
2022/08/12 10:46:58;;;;;;;3.43;1.50;;;30.20;44.30;;;;;;4945861;28;20034;-68
2022/08/12 10:49:30;;;;;;;4.13;1.83;;;30.30;42.80;;;;;;4965407;28;20115;-68
2022/08/12 10:51:57;;;;;;;2.67;1.80;;;30.30;42.00;;;;;;4950579;28;20070;-68
2022/08/12 10:54:26;;;;;;;4.17;2.33;;;30.40;41.40;;;;;;4981675;28;20053;-68
2022/08/12 10:56:52;;;;;;;3.90;1.87;;;30.40;41.80;;;;;;4968371;28;20503;-68
2022/08/12 10:59:22;;;;;;;4.63;1.80;;;30.50;41.70;;;;;;4950115;28;20306;-68
2022/08/12 11:01:48;;;;;;;3.70;2.03;;;30.60;41.90;;;;;;4978833;28;20181;-68
2022/08/12 11:04:15;;;;;;;2.70;1.60;;;30.70;41.10;;;;;;4987060;28;20043;-68
2022/08/12 11:06:49;;;;;;;2.20;1.80;;;30.80;41.20;;;;;;4953096;28;20105;-68
2022/08/12 11:09:36;;;;;;;3.27;1.70;;;30.90;41.00;;;;;;4996628;28;20086;-68
2022/08/12 11:12:05;;;;;;;2.43;1.70;;;31.00;40.20;;;;;;4983899;28;20040;-68
2022/08/12 11:14:36;;;;;;;3.87;1.80;;;31.00;40.60;;;;;;4970761;28;20050;-68
2022/08/12 11:17:06;;;;;;;3.33;1.73;;;31.10;40.30;;;;;;4978699;28;20054;-68
2022/08/12 11:19:36;;;;;;;2.67;1.70;;;31.20;40.70;;;;;;4981491;28;20042;-68
2022/08/12 11:22:03;;;;;;;3.87;1.90;;;31.30;39.70;;;;;;4997028;28;20026;-68
2022/08/12 11:24:29;;;;;;;5.97;2.03;;;31.30;39.60;;;;;;4974464;28;20039;-68
2022/08/12 11:26:56;;;;;;;6.93;2.13;;;31.40;39.40;;;;;;4983391;28;20093;-69
2022/08/12 11:29:24;;;;;;;2.70;1.60;;;31.50;39.70;;;;;;4985331;28;20100;-69
2022/08/12 11:31:51;;;;;;;4.03;1.73;;;31.50;39.30;;;;;;4962121;28;20050;-69
2022/08/12 11:34:17;;;;;;;2.37;1.60;;;31.60;39.10;;;;;;4978673;28;20141;-69
2022/08/12 11:37:03;;;;;;;6.73;1.70;;;31.70;38.70;;;;;;4967349;28;20050;-69
2022/08/12 11:39:30;;;;;;;3.00;1.90;;;31.80;38.40;;;;;;4975059;28;20042;-69
2022/08/12 11:41:56;;;;;;;5.00;1.80;;;31.80;38.50;;;;;;4980313;28;20560;-69
2022/08/12 11:44:22;;;;;;;2.97;1.70;;;31.90;38.60;;;;;;4971207;28;20042;-69
2022/08/12 11:46:49;;;;;;;3.47;1.60;;;32.00;38.20;;;;;;4978783;28;20126;-69
2022/08/12 11:49:15;;;;;;;1.93;1.50;;;31.90;38.60;;;;;;4982224;28;20052;-69
2022/08/12 11:51:41;;;;;;;5.23;1.67;;;31.90;37.70;;;;;;4949657;28;20038;-69
2022/08/12 11:54:06;;;;;;;2.97;1.50;;;32.00;37.40;;;;;;4966931;28;20469;-69
2022/08/12 11:56:32;;;;;;;3.83;1.50;;;32.00;36.70;;;;;;4977819;28;20387;-69
2022/08/12 11:58:58;;;;;;;1.93;1.50;;;32.00;36.50;;;;;;4979652;28;20128;-69
2022/08/12 12:01:24;;;;;;;2.57;1.80;;;32.00;36.40;;;;;;4969081;28;20205;-69
2022/08/12 12:03:50;;;;;;;3.60;1.67;;;32.00;36.30;;;;;;4977144;28;20045;-68
2022/08/12 12:06:19;;;;;;;2.50;1.73;;;32.00;36.60;;;;;;5002685;28;20046;-69
2022/08/12 12:08:45;;;;;;;3.73;1.70;;;32.00;36.30;;;;;;5001681;28;20053;-69
2022/08/12 12:11:11;;;;;;;2.93;1.70;;;32.10;35.50;;;;;;4980481;28;20042;-69
2022/08/12 12:13:37;;;;;;;6.00;1.70;;;32.10;36.70;;;;;;4985955;28;20100;-68
2022/08/12 12:16:03;;;;;;;2.20;1.30;;;32.20;36.20;;;;;;4981678;28;20042;-69
2022/08/12 12:18:30;;;;;;;2.77;1.67;;;32.20;36.20;;;;;;4968421;28;20084;-69
2022/08/12 12:20:59;;;;;;;3.10;1.70;;;32.20;35.90;;;;;;4965295;28;20045;-69
2022/08/12 12:23:25;;;;;;;2.20;1.33;;;32.30;35.70;;;;;;4998195;28;20509;-69
2022/08/12 12:25:51;;;;;;;5.00;1.47;;;32.40;36.30;;;;;;4951361;28;20039;-69
2022/08/12 12:28:17;;;;;;;3.55;1.55;;;32.50;35.80;;;;;;4967276;28;20100;-69
2022/08/12 12:30:43;;;;;;;1.80;1.50;;;32.60;34.90;;;;;;4952286;28;20039;-69
2022/08/12 12:33:11;;;;;;;2.80;1.70;;;32.60;34.80;;;;;;4975595;28;20038;-69
2022/08/12 12:35:40;;;;;;;5.73;1.80;;;32.60;35.80;;;;;;4978317;28;20042;-69
2022/08/12 12:38:10;;;;;;;3.40;1.60;;;32.60;34.60;;;;;;4983650;28;20039;-69
2022/08/12 12:40:38;;;;;;;2.73;1.90;;;32.70;35.50;;;;;;4984589;28;20797;-69
2022/08/12 12:43:04;;;;;;;1.70;1.60;;;32.70;35.00;;;;;;4966535;28;20111;-69
2022/08/12 12:45:31;;;;;;;2.53;1.55;;;32.70;35.80;;;;;;4975694;28;20100;-69
2022/08/12 12:47:58;;;;;;;1.80;1.45;;;32.90;35.20;;;;;;4985280;28;20145;-69
2022/08/12 12:50:46;;;;;;;2.78;1.23;;;32.90;35.00;;;;;;4965299;28;20046;-69
2022/08/12 12:53:17;;;;;;;4.13;1.77;;;33.00;34.40;;;;;;4977494;28;20061;-69
2022/08/12 12:55:45;;;;;;;3.35;1.30;;;33.00;34.30;;;;;;4982781;28;20051;-69
2022/08/12 12:58:15;;;;;;;2.17;1.40;;;33.00;34.60;;;;;;4985781;28;20108;-69
2022/08/12 13:00:43;;;;;;;2.45;1.80;;;33.10;34.50;;;;;;4973526;28;20110;-69
2022/08/12 13:03:17;;;;;;;3.05;1.58;;;33.20;34.30;;;;;;4968000;28;20042;-69
2022/08/12 13:05:43;;;;;;;3.03;1.52;;;33.20;33.80;;;;;;4967008;28;20061;-69
2022/08/12 13:08:23;;;;;;;3.17;1.70;;;33.20;34.30;;;;;;4978686;28;20439;-69
2022/08/12 13:10:52;;;;;;;3.78;1.30;;;33.20;33.60;;;;;;4983298;28;20517;-69
2022/08/12 13:13:19;;;;;;;2.22;1.35;;;33.20;34.10;;;;;;4968778;28;20053;-69
2022/08/12 13:15:48;;;;;;;2.55;1.38;;;33.10;34.10;;;;;;4997922;28;20030;-69
2022/08/12 13:18:16;;;;;;;2.50;1.38;;;33.10;33.80;;;;;;4975657;28;20038;-69
2022/08/12 13:20:43;;;;;;;3.00;1.45;;;33.10;33.50;;;;;;4975131;28;20129;-69
2022/08/12 13:23:11;;;;;;;4.40;1.48;;;33.20;33.80;;;;;;4985005;28;20655;-67
2022/08/12 13:25:40;;;;;;;3.22;1.67;;;33.20;33.50;;;;;;4954843;28;20043;-70
2022/08/12 13:28:10;;;;;;;5.30;1.48;;;33.20;33.40;;;;;;4968540;28;20045;-69
2022/08/12 13:30:35;;;;;;;2.70;1.75;;;33.10;33.00;;;;;;4969692;28;20046;-69
2022/08/12 13:33:01;;;;;;;3.08;1.70;;;33.10;33.90;;;;;;4966268;28;20034;-69
2022/08/12 13:35:29;;;;;;;1.88;1.42;;;33.10;33.70;;;;;;4984235;28;20438;-69
2022/08/12 13:37:58;;;;;;;2.33;1.50;;;33.20;33.40;;;;;;4977536;28;20092;-69
2022/08/12 13:40:29;;;;;;;1.63;1.35;;;33.20;33.50;;;;;;4982994;28;20478;-69
2022/08/12 13:43:00;;;;;;;2.38;1.40;;;33.30;33.50;;;;;;4968064;28;20153;-69
2022/08/12 13:45:30;;;;;;;2.83;1.60;;;33.40;33.00;;;;;;4978760;28;20259;-69
2022/08/12 13:48:04;;;;;;;2.85;1.50;;;33.40;32.60;;;;;;4980318;28;20034;-69
2022/08/12 13:50:31;;;;;;;;;;;33.30;32.40;;;;;;4971084;28;20049;-69
2022/08/12 13:53:01;;;;;;;2.15;1.20;;;33.20;33.40;;;;;;4979436;28;19921;-69
2022/08/12 13:55:28;;;;;;;4.28;1.33;;;33.20;34.00;;;;;;4982038;28;20046;-67
2022/08/12 13:57:54;;;;;;;1.75;1.30;;;33.20;33.30;;;;;;4999549;28;20509;-67
2022/08/12 14:00:21;;;;;;;2.05;1.33;;;33.30;33.00;;;;;;4984497;28;20054;-69
2022/08/12 14:02:48;;;;;;;2.28;1.40;;;33.40;33.10;;;;;;4954708;28;20049;-69
2022/08/12 14:05:14;;;;;;;1.70;1.10;;;33.50;33.10;;;;;;4979342;28;20046;-69
2022/08/12 14:08:00;;;;;;;3.42;1.30;;;33.60;32.50;;;;;;4966309;28;20049;-69
2022/08/12 14:10:38;;;;;;;2.50;1.55;;;33.70;32.70;;;;;;5002193;28;20049;-69
2022/08/12 14:13:13;;;;;;;4.20;1.60;;;33.70;34.90;;;;;;4981729;28;20074;-69
2022/08/12 14:15:49;;;;;;;4.38;1.58;;;33.60;36.20;;;;;;4983702;28;20162;-69
2022/08/12 14:18:20;;;;;;;3.72;1.70;;;33.60;37.20;;;;;;4967431;28;20039;-69
2022/08/12 14:20:50;;;;;;;3.40;1.70;;;33.50;38.40;;;;;;4983226;28;20482;-69
2022/08/12 14:23:18;;;;;;;3.33;1.50;;;33.60;38.20;;;;;;4967537;28;20046;-67
2022/08/12 14:25:46;;;;;;;2.85;1.48;;;33.60;37.90;;;;;;4968157;28;20034;-67
2022/08/12 14:28:17;;;;;;;2.67;1.60;;;33.50;37.70;;;;;;4977721;28;20042;-67
2022/08/12 14:30:44;;;;;;;5.65;1.95;;;33.50;37.70;;;;;;4974756;28;20046;-67
2022/08/12 14:33:14;;;;;;;3.47;1.70;;;33.50;38.10;;;;;;4968333;28;20053;-67
2022/08/12 14:35:43;;;;;;;3.60;1.48;;;33.50;38.40;;;;;;4965458;28;20131;-68
2022/08/12 14:38:36;;;;;;;3.83;1.85;;;33.50;38.00;;;;;;4983069;28;20571;-67
2022/08/12 14:41:03;;;;;;;2.72;1.77;;;33.50;38.30;;;;;;4987638;28;20186;-67
2022/08/12 14:43:32;;;;;;;6.50;2.10;;;33.50;38.30;;;;;;4983469;28;20046;-69
2022/08/12 14:46:00;;;;;;;2.80;1.38;;;33.50;38.40;;;;;;4967158;28;20050;-68
2022/08/12 14:48:29;;;;;;;8.30;1.60;;;33.50;38.30;;;;;;4969182;28;20065;-67